Terminal Aerodrome Forecast
Issued by NWS Charleston, WV

Current Version | Previous Version | Text Only | Print | Product List | Glossary Off
Versions: 1 2 3 4 5 6 7 8 9 10 11 12 13 14 15 16 17 18 19 20 21 22 23 24 25 26 27 28

000
FTUS41 KRLX 231500 AAC
TAFPKB
TAF AMD
KPKB 231507Z 2315/2412 32004KT P6SM BKN015
     FM231700 31005KT P6SM BKN025
     FM231900 31005KT P6SM SCT035
     FM240200 00000KT P6SM SCT200=

USA.gov is the U.S. government's official web portal to all federal, state and local government web resources and services.